sensor_id;sensor_type;location;lat;lon;timestamp;temperature;humidity
13721;DHT22;6932;51.438;5.470;2022-11-15T17:44:26;22.10;86.60
13721;DHT22;6932;51.438;5.470;2022-11-15T17:46:55;22.00;80.80
13721;DHT22;6932;51.438;5.470;2022-11-15T17:49:21;21.90;79.30
13721;DHT22;6932;51.438;5.470;2022-11-15T17:51:47;21.80;78.30
13721;DHT22;6932;51.438;5.470;2022-11-15T17:54:22;21.60;77.80
13721;DHT22;6932;51.438;5.470;2022-11-15T17:56:48;21.30;78.10
13721;DHT22;6932;51.438;5.470;2022-11-15T17:59:18;21.10;78.30
13721;DHT22;6932;51.438;5.470;2022-11-15T18:01:43;20.80;78.70
13721;DHT22;6932;51.438;5.470;2022-11-15T18:04:09;20.50;79.10
13721;DHT22;6932;51.438;5.470;2022-11-15T18:06:37;20.20;79.80
13721;DHT22;6932;51.438;5.470;2022-11-15T18:09:13;19.90;80.40
13721;DHT22;6932;51.438;5.470;2022-11-15T18:11:56;19.70;81.50
13721;DHT22;6932;51.438;5.470;2022-11-15T18:14:27;19.50;82.00
13721;DHT22;6932;51.438;5.470;2022-11-15T18:16:53;19.30;82.80
13721;DHT22;6932;51.438;5.470;2022-11-15T18:19:43;19.10;82.90
13721;DHT22;6932;51.438;5.470;2022-11-15T18:22:09;19.00;83.40
13721;DHT22;6932;51.438;5.470;2022-11-15T18:24:35;18.90;84.10
13721;DHT22;6932;51.438;5.470;2022-11-15T18:27:07;18.80;84.70
13721;DHT22;6932;51.438;5.470;2022-11-15T18:29:33;18.70;85.10
13721;DHT22;6932;51.438;5.470;2022-11-15T18:32:03;18.60;85.60
13721;DHT22;6932;51.438;5.470;2022-11-15T18:34:38;18.50;85.80
13721;DHT22;6932;51.438;5.470;2022-11-15T18:37:04;18.50;86.30
13721;DHT22;6932;51.438;5.470;2022-11-15T18:39:33;18.40;86.40
13721;DHT22;6932;51.438;5.470;2022-11-15T18:42:00;18.30;86.60
13721;DHT22;6932;51.438;5.470;2022-11-15T18:44:41;18.30;86.90
13721;DHT22;6932;51.438;5.470;2022-11-15T18:47:10;18.30;87.40
13721;DHT22;6932;51.438;5.470;2022-11-15T18:49:43;18.30;87.40
13721;DHT22;6932;51.438;5.470;2022-11-15T18:52:12;18.20;87.70
13721;DHT22;6932;51.438;5.470;2022-11-15T18:54:49;18.20;88.00
13721;DHT22;6932;51.438;5.470;2022-11-15T18:57:17;18.20;88.20
13721;DHT22;6932;51.438;5.470;2022-11-15T18:59:43;18.20;88.70
13721;DHT22;6932;51.438;5.470;2022-11-15T19:02:10;18.20;88.70
13721;DHT22;6932;51.438;5.470;2022-11-15T19:04:37;18.20;89.00
13721;DHT22;6932;51.438;5.470;2022-11-15T19:07:05;18.10;89.00
13721;DHT22;6932;51.438;5.470;2022-11-15T19:09:37;18.20;89.40
13721;DHT22;6932;51.438;5.470;2022-11-15T19:12:05;18.20;89.40
13721;DHT22;6932;51.438;5.470;2022-11-15T19:14:52;18.20;89.80
13721;DHT22;6932;51.438;5.470;2022-11-15T19:17:18;18.20;90.10
13721;DHT22;6932;51.438;5.470;2022-11-15T19:19:47;18.20;90.00
13721;DHT22;6932;51.438;5.470;2022-11-15T19:22:18;18.10;90.10
13721;DHT22;6932;51.438;5.470;2022-11-15T19:24:46;18.20;90.20
13721;DHT22;6932;51.438;5.470;2022-11-15T19:27:12;18.20;90.30
13721;DHT22;6932;51.438;5.470;2022-11-15T19:29:38;18.20;90.30
13721;DHT22;6932;51.438;5.470;2022-11-15T19:32:05;18.20;90.50
13721;DHT22;6932;51.438;5.470;2022-11-15T19:34:31;18.20;90.60
13721;DHT22;6932;51.438;5.470;2022-11-15T19:36:57;18.30;90.70
13721;DHT22;6932;51.438;5.470;2022-11-15T19:39:26;18.20;90.70
13721;DHT22;6932;51.438;5.470;2022-11-15T19:41:58;18.30;90.90
13721;DHT22;6932;51.438;5.470;2022-11-15T19:44:24;18.20;90.90
13721;DHT22;6932;51.438;5.470;2022-11-15T19:46:55;18.20;91.00
13721;DHT22;6932;51.438;5.470;2022-11-15T19:49:21;18.20;90.90
13721;DHT22;6932;51.438;5.470;2022-11-15T19:51:47;18.30;91.00
13721;DHT22;6932;51.438;5.470;2022-11-15T19:54:21;18.30;91.00
13721;DHT22;6932;51.438;5.470;2022-11-15T19:56:57;18.30;91.20
13721;DHT22;6932;51.438;5.470;2022-11-15T19:59:23;18.30;91.10
13721;DHT22;6932;51.438;5.470;2022-11-15T20:01:51;18.30;91.00
13721;DHT22;6932;51.438;5.470;2022-11-15T20:04:19;18.30;91.20
13721;DHT22;6932;51.438;5.470;2022-11-15T20:06:45;18.30;91.20
13721;DHT22;6932;51.438;5.470;2022-11-15T20:09:12;18.30;91.30
13721;DHT22;6932;51.438;5.470;2022-11-15T20:11:40;18.30;91.40
13721;DHT22;6932;51.438;5.470;2022-11-15T20:14:14;18.30;91.40
13721;DHT22;6932;51.438;5.470;2022-11-15T20:17:00;18.30;91.50
13721;DHT22;6932;51.438;5.470;2022-11-15T20:19:29;18.30;91.50
13721;DHT22;6932;51.438;5.470;2022-11-15T20:25:56;18.30;91.70
13721;DHT22;6932;51.438;5.470;2022-11-15T20:29:15;18.30;91.70
13721;DHT22;6932;51.438;5.470;2022-11-15T20:32:13;18.30;91.60
13721;DHT22;6932;51.438;5.470;2022-11-15T20:34:44;18.30;91.70
13721;DHT22;6932;51.438;5.470;2022-11-15T20:37:12;18.30;91.80
13721;DHT22;6932;51.438;5.470;2022-11-15T20:39:38;18.30;91.70
13721;DHT22;6932;51.438;5.470;2022-11-15T20:42:16;18.30;91.70
13721;DHT22;6932;51.438;5.470;2022-11-15T20:44:45;18.30;91.80
13721;DHT22;6932;51.438;5.470;2022-11-15T20:47:15;18.30;91.90
13721;DHT22;6932;51.438;5.470;2022-11-15T20:49:44;18.30;91.90
13721;DHT22;6932;51.438;5.470;2022-11-15T20:52:10;18.30;91.80
13721;DHT22;6932;51.438;5.470;2022-11-15T20:54:52;18.30;91.90
13721;DHT22;6932;51.438;5.470;2022-11-15T20:57:18;18.20;92.00
13721;DHT22;6932;51.438;5.470;2022-11-15T20:59:46;18.30;91.90
13721;DHT22;6932;51.438;5.470;2022-11-15T21:02:13;18.20;92.00
13721;DHT22;6932;51.438;5.470;2022-11-15T21:04:42;18.20;92.10
13721;DHT22;6932;51.438;5.470;2022-11-15T21:07:07;18.30;92.00
13721;DHT22;6932;51.438;5.470;2022-11-15T21:09:33;18.20;92.10
13721;DHT22;6932;51.438;5.470;2022-11-15T21:12:18;18.30;92.20
13721;DHT22;6932;51.438;5.470;2022-11-15T21:14:44;18.30;92.10
13721;DHT22;6932;51.438;5.470;2022-11-15T21:17:13;18.30;92.20
13721;DHT22;6932;51.438;5.470;2022-11-15T21:19:40;18.30;92.20
13721;DHT22;6932;51.438;5.470;2022-11-15T21:22:10;18.30;92.30
13721;DHT22;6932;51.438;5.470;2022-11-15T21:24:40;18.30;92.30
13721;DHT22;6932;51.438;5.470;2022-11-15T21:27:06;18.30;92.20
13721;DHT22;6932;51.438;5.470;2022-11-15T21:29:45;18.30;92.30
13721;DHT22;6932;51.438;5.470;2022-11-15T21:32:24;18.30;92.30
13721;DHT22;6932;51.438;5.470;2022-11-15T21:35:02;18.30;92.20
13721;DHT22;6932;51.438;5.470;2022-11-15T21:37:34;18.30;92.30
13721;DHT22;6932;51.438;5.470;2022-11-15T21:40:18;18.30;92.30
13721;DHT22;6932;51.438;5.470;2022-11-15T21:42:58;18.30;92.30
13721;DHT22;6932;51.438;5.470;2022-11-15T21:45:37;18.20;92.40
13721;DHT22;6932;51.438;5.470;2022-11-15T21:48:06;18.30;92.40
13721;DHT22;6932;51.438;5.470;2022-11-15T21:50:34;18.30;92.40
13721;DHT22;6932;51.438;5.470;2022-11-15T21:53:05;18.30;92.30
13721;DHT22;6932;51.438;5.470;2022-11-15T21:55:46;18.30;92.40
13721;DHT22;6932;51.438;5.470;2022-11-15T21:58:20;18.30;92.50
13721;DHT22;6932;51.438;5.470;2022-11-15T22:00:47;18.30;92.50
13721;DHT22;6932;51.438;5.470;2022-11-15T22:03:35;18.30;92.50
13721;DHT22;6932;51.438;5.470;2022-11-15T22:06:01;18.30;92.50
13721;DHT22;6932;51.438;5.470;2022-11-15T22:08:32;18.30;92.50
13721;DHT22;6932;51.438;5.470;2022-11-15T22:11:01;18.30;92.50
13721;DHT22;6932;51.438;5.470;2022-11-15T22:13:30;18.30;92.50
13721;DHT22;6932;51.438;5.470;2022-11-15T22:15:56;18.30;92.50
13721;DHT22;6932;51.438;5.470;2022-11-15T22:18:23;18.30;92.50
13721;DHT22;6932;51.438;5.470;2022-11-15T22:20:59;18.30;92.70
13721;DHT22;6932;51.438;5.470;2022-11-15T22:23:32;18.30;92.70
13721;DHT22;6932;51.438;5.470;2022-11-15T22:26:05;18.30;92.70
13721;DHT22;6932;51.438;5.470;2022-11-15T22:28:48;18.30;92.70
13721;DHT22;6932;51.438;5.470;2022-11-15T22:31:21;18.30;92.60
13721;DHT22;6932;51.438;5.470;2022-11-15T22:33:50;18.30;92.70
13721;DHT22;6932;51.438;5.470;2022-11-15T22:36:32;18.30;92.70
13721;DHT22;6932;51.438;5.470;2022-11-15T22:39:14;18.30;92.80
13721;DHT22;6932;51.438;5.470;2022-11-15T22:41:43;18.40;92.70
13721;DHT22;6932;51.438;5.470;2022-11-15T22:44:28;18.30;92.70
13721;DHT22;6932;51.438;5.470;2022-11-15T22:47:02;18.40;92.80
13721;DHT22;6932;51.438;5.470;2022-11-15T22:49:30;18.40;93.10
13721;DHT22;6932;51.438;5.470;2022-11-15T22:52:02;18.30;92.90
13721;DHT22;6932;51.438;5.470;2022-11-15T22:54:30;18.30;92.80
13721;DHT22;6932;51.438;5.470;2022-11-15T22:57:10;18.40;93.00
13721;DHT22;6932;51.438;5.470;2022-11-15T22:59:36;18.30;93.00
13721;DHT22;6932;51.438;5.470;2022-11-15T23:02:03;18.30;92.90
13721;DHT22;6932;51.438;5.470;2022-11-15T23:04:47;18.30;93.00
13721;DHT22;6932;51.438;5.470;2022-11-15T23:07:30;18.30;93.10
13721;DHT22;6932;51.438;5.470;2022-11-15T23:09:58;18.40;93.00
13721;DHT22;6932;51.438;5.470;2022-11-15T23:12:50;18.40;93.10
13721;DHT22;6932;51.438;5.470;2022-11-15T23:15:50;18.40;93.10
13721;DHT22;6932;51.438;5.470;2022-11-15T23:18:36;18.40;93.10
13721;DHT22;6932;51.438;5.470;2022-11-15T23:21:15;18.30;93.10
13721;DHT22;6932;51.438;5.470;2022-11-15T23:24:11;18.30;93.10
13721;DHT22;6932;51.438;5.470;2022-11-15T23:26:42;18.40;93.20
13721;DHT22;6932;51.438;5.470;2022-11-15T23:29:15;18.40;93.20
13721;DHT22;6932;51.438;5.470;2022-11-15T23:32:21;18.40;93.30
13721;DHT22;6932;51.438;5.470;2022-11-15T23:35:38;18.30;93.40
13721;DHT22;6932;51.438;5.470;2022-11-15T23:38:37;18.40;93.30
13721;DHT22;6932;51.438;5.470;2022-11-15T23:41:23;18.30;93.30
13721;DHT22;6932;51.438;5.470;2022-11-15T23:44:23;18.40;93.30
13721;DHT22;6932;51.438;5.470;2022-11-15T23:46:55;18.40;93.40
13721;DHT22;6932;51.438;5.470;2022-11-15T23:49:25;18.40;93.30
13721;DHT22;6932;51.438;5.470;2022-11-15T23:51:51;18.40;93.30
13721;DHT22;6932;51.438;5.470;2022-11-15T23:54:22;18.30;93.40
13721;DHT22;6932;51.438;5.470;2022-11-15T23:56:52;18.40;93.40
13721;DHT22;6932;51.438;5.470;2022-11-15T23:59:40;18.40;93.50
